createdAt,value
2023-03-21T00:03:16.674Z,504.00
2023-03-21T00:07:14.577Z,505.00
2023-03-21T00:11:14.550Z,500.00
2023-03-21T00:15:14.482Z,506.00
2023-03-21T00:19:14.447Z,505.00
2023-03-21T00:23:14.357Z,505.00
2023-03-21T00:27:39.773Z,508.00
2023-03-21T00:31:15.327Z,506.00
2023-03-21T00:36:06.449Z,505.00
2023-03-21T00:39:15.219Z,503.00
2023-03-21T00:43:14.602Z,505.00
2023-03-21T00:47:14.160Z,505.00
2023-03-21T00:51:14.124Z,503.00
2023-03-21T00:55:14.102Z,505.00
2023-03-21T00:59:14.042Z,501.00
2023-03-21T01:03:23.582Z,504.00
2023-03-21T01:07:15.035Z,503.00
2023-03-21T01:11:14.020Z,506.00
2023-03-21T01:15:13.894Z,507.00
2023-03-21T01:19:24.236Z,508.00
2023-03-21T01:23:15.166Z,502.00
2023-03-21T01:27:13.811Z,506.00
2023-03-21T01:31:14.110Z,500.00
2023-03-21T01:35:13.754Z,507.00
2023-03-21T01:39:13.793Z,500.00
2023-03-21T01:43:13.668Z,504.00
2023-03-21T01:47:13.648Z,501.00
2023-03-21T01:51:13.607Z,504.00
2023-03-21T01:55:13.599Z,503.00
2023-03-21T01:59:13.573Z,505.00
2023-03-21T02:03:20.957Z,507.00
2023-03-21T02:07:14.597Z,501.00
2023-03-21T02:11:13.536Z,503.00
2023-03-21T02:15:13.474Z,504.00
2023-03-21T02:19:15.728Z,503.00
2023-03-21T02:23:13.425Z,501.00
2023-03-21T02:27:13.360Z,500.00
2023-03-21T02:31:13.336Z,508.00
2023-03-21T02:35:13.347Z,504.00
2023-03-21T02:39:13.373Z,502.00
2023-03-21T02:43:22.541Z,504.00
2023-03-21T02:47:14.344Z,502.00
2023-03-21T02:51:13.148Z,504.00
2023-03-21T02:55:13.092Z,503.00
2023-03-21T02:59:13.134Z,502.00
2023-03-21T03:03:24.803Z,505.00
2023-03-21T03:07:14.053Z,504.00
2023-03-21T03:11:13.008Z,506.00
2023-03-21T03:15:12.927Z,503.00
2023-03-21T03:19:12.954Z,505.00
2023-03-21T03:23:12.866Z,507.00
2023-03-21T03:27:12.843Z,505.00
2023-03-21T03:31:13.200Z,501.00
2023-03-21T03:35:12.836Z,507.00
2023-03-21T03:39:12.961Z,505.00
2023-03-21T03:43:13.028Z,504.00
2023-03-21T03:47:22.902Z,500.00
2023-03-21T03:51:14.100Z,502.00
2023-03-21T03:55:13.031Z,500.00
2023-03-21T03:59:12.978Z,503.00
2023-03-21T04:03:13.055Z,508.00
2023-03-21T04:07:12.966Z,505.00
2023-03-21T04:11:12.938Z,503.00
2023-03-21T04:15:13.014Z,504.00
2023-03-21T04:19:13.060Z,503.00
2023-03-21T04:23:13.121Z,501.00
2023-03-21T04:27:13.201Z,507.00
2023-03-21T04:31:24.362Z,500.00
2023-03-21T04:35:15.152Z,501.00
2023-03-21T04:39:13.214Z,504.00
2023-03-21T04:43:13.145Z,502.00
2023-03-21T04:47:13.159Z,500.00
2023-03-21T04:51:13.079Z,504.00
2023-03-21T04:55:13.039Z,505.00
2023-03-21T04:59:13.121Z,505.00
2023-03-21T05:03:13.208Z,504.00
2023-03-21T05:07:13.370Z,500.00
2023-03-21T05:11:13.390Z,504.00
2023-03-21T05:15:13.732Z,504.00
2023-03-21T05:19:13.595Z,506.00
2023-03-21T05:23:13.767Z,505.00
2023-03-21T05:27:13.797Z,513.00
2023-03-21T05:31:13.907Z,514.00
2023-03-21T05:35:13.891Z,521.00
2023-03-21T05:39:13.920Z,523.00
2023-03-21T05:43:13.848Z,520.00
2023-03-21T05:47:13.801Z,523.00
2023-03-21T05:51:13.838Z,522.00
2023-03-21T05:55:13.811Z,518.00
2023-03-21T05:59:13.796Z,516.00
2023-03-21T06:03:13.862Z,518.00
2023-03-21T06:07:13.900Z,515.00
2023-03-21T06:11:14.683Z,518.00
2023-03-21T06:15:14.019Z,516.00
2023-03-21T06:19:14.208Z,518.00
2023-03-21T06:23:14.367Z,514.00
2023-03-21T06:27:14.345Z,506.00
2023-03-21T06:31:15.375Z,511.00
2023-03-21T06:35:17.134Z,505.00
2023-03-21T06:39:14.297Z,512.00
2023-03-21T06:43:14.290Z,528.00
2023-03-21T06:47:14.196Z,558.00
2023-03-21T06:51:14.309Z,581.00
2023-03-21T06:55:14.631Z,602.00
2023-03-21T06:59:14.275Z,611.00
2023-03-21T07:03:14.250Z,583.00
2023-03-21T07:07:14.344Z,579.00
2023-03-21T07:11:14.312Z,588.00
2023-03-21T07:15:14.384Z,603.00
2023-03-21T07:19:14.349Z,515.00
2023-03-21T07:23:14.694Z,500.00
2023-03-21T07:27:14.619Z,515.00
2023-03-21T07:31:14.538Z,500.00
2023-03-21T07:35:14.540Z,502.00
2023-03-21T07:39:16.113Z,511.00
2023-03-21T07:43:14.422Z,500.00
2023-03-21T07:47:14.320Z,500.00
2023-03-21T07:51:14.265Z,500.00
2023-03-21T07:55:15.265Z,532.00
2023-03-21T07:59:14.340Z,570.00
2023-03-21T08:03:14.397Z,611.00
2023-03-21T08:07:14.219Z,659.00
2023-03-21T08:11:14.191Z,709.00
2023-03-21T08:15:14.067Z,793.00
2023-03-21T08:19:14.154Z,842.00
2023-03-21T08:23:14.133Z,868.00
2023-03-21T08:27:14.177Z,905.00
2023-03-21T08:31:14.170Z,896.00
2023-03-21T08:35:14.721Z,834.00
2023-03-21T08:39:14.329Z,652.00
2023-03-21T08:43:14.914Z,598.00
2023-03-21T08:47:14.058Z,558.00
2023-03-21T08:51:13.869Z,546.00
2023-03-21T08:55:13.906Z,540.00
2023-03-21T08:59:13.816Z,545.00
2023-03-21T09:03:13.782Z,556.00
2023-03-21T09:07:13.757Z,537.00
2023-03-21T09:11:13.716Z,543.00
2023-03-21T09:15:13.646Z,519.00
2023-03-21T09:19:13.780Z,503.00
2023-03-21T09:23:13.731Z,523.00
2023-03-21T09:27:14.703Z,556.00
2023-03-21T09:31:13.812Z,530.00
2023-03-21T09:35:13.569Z,510.00
2023-03-21T09:39:13.560Z,594.00
2023-03-21T09:43:13.490Z,703.00
2023-03-21T09:47:13.533Z,637.00
2023-03-21T09:51:13.508Z,596.00
2023-03-21T09:55:13.623Z,556.00
2023-03-21T09:59:13.706Z,538.00
2023-03-21T10:03:13.801Z,536.00
2023-03-21T10:07:13.798Z,539.00
2023-03-21T10:11:13.899Z,514.00
2023-03-21T10:15:13.942Z,517.00
2023-03-21T10:19:13.986Z,509.00
2023-03-21T10:23:14.004Z,493.00
2023-03-21T10:27:14.688Z,530.00
2023-03-21T10:31:14.024Z,522.00
2023-03-21T10:35:14.160Z,575.00
2023-03-21T10:39:13.986Z,581.00
2023-03-21T10:43:14.937Z,594.00
2023-03-21T10:47:14.571Z,622.00
2023-03-21T10:51:14.162Z,623.00
2023-03-21T10:55:14.234Z,629.00
2023-03-21T10:59:14.019Z,650.00
2023-03-21T11:03:14.055Z,638.00
2023-03-21T11:07:14.017Z,641.00
2023-03-21T11:11:14.204Z,644.00
2023-03-21T11:15:14.079Z,644.00
2023-03-21T11:19:14.233Z,638.00
2023-03-21T11:23:14.094Z,645.00
2023-03-21T11:27:14.150Z,645.00
2023-03-21T11:31:14.117Z,654.00
2023-03-21T11:35:14.241Z,680.00
2023-03-21T11:39:14.355Z,778.00
2023-03-21T11:43:14.332Z,805.00
2023-03-21T11:47:14.133Z,849.00
2023-03-21T11:51:14.113Z,902.00
2023-03-21T11:55:14.077Z,934.00
2023-03-21T11:59:14.043Z,961.00
2023-03-21T12:03:14.153Z,977.00
2023-03-21T12:07:14.582Z,1018.00
2023-03-21T12:11:14.028Z,1035.00
2023-03-21T12:15:13.976Z,1072.00
2023-03-21T12:19:14.015Z,1101.00
2023-03-21T12:23:13.884Z,1100.00
2023-03-21T12:27:13.875Z,1087.00
2023-03-21T12:31:14.625Z,1068.00
2023-03-21T12:35:13.899Z,1032.00
2023-03-21T12:39:13.959Z,1016.00
2023-03-21T12:43:14.823Z,994.00
2023-03-21T12:47:13.778Z,977.00
2023-03-21T12:51:13.800Z,965.00
2023-03-21T12:55:13.801Z,950.00
2023-03-21T12:59:13.794Z,955.00
2023-03-21T13:03:13.714Z,929.00
2023-03-21T13:07:13.633Z,904.00
2023-03-21T13:11:13.699Z,908.00
2023-03-21T13:15:21.845Z,876.00
2023-03-21T13:19:14.576Z,872.00
2023-03-21T13:23:13.660Z,862.00
2023-03-21T13:27:13.724Z,880.00
2023-03-21T13:31:13.679Z,875.00
2023-03-21T13:35:13.720Z,844.00
2023-03-21T13:39:13.717Z,825.00
2023-03-21T13:43:16.208Z,800.00
2023-03-21T13:47:14.695Z,807.00
2023-03-21T13:51:13.890Z,803.00
2023-03-21T13:55:13.629Z,801.00
2023-03-21T13:59:13.712Z,758.00
2023-03-21T14:03:13.526Z,775.00
2023-03-21T14:07:13.585Z,792.00
2023-03-21T14:11:13.573Z,779.00
2023-03-21T14:15:16.835Z,783.00
2023-03-21T14:19:13.418Z,763.00
2023-03-21T14:23:13.390Z,753.00
2023-03-21T14:27:13.383Z,782.00
2023-03-21T14:31:13.493Z,721.00
2023-03-21T14:35:13.341Z,725.00
2023-03-21T14:39:13.257Z,709.00
2023-03-21T14:43:13.229Z,726.00
2023-03-21T14:47:13.238Z,693.00
2023-03-21T14:51:13.236Z,726.00
2023-03-21T14:55:13.101Z,710.00
2023-03-21T14:59:13.062Z,732.00
2023-03-21T15:03:13.219Z,689.00
2023-03-21T15:07:13.013Z,698.00
2023-03-21T15:11:13.121Z,705.00
2023-03-21T15:15:12.958Z,696.00
2023-03-21T15:19:13.031Z,678.00
2023-03-21T15:23:12.911Z,692.00
2023-03-21T15:27:12.940Z,681.00
2023-03-21T15:31:12.890Z,667.00
2023-03-21T15:35:13.287Z,674.00
2023-03-21T15:39:12.684Z,678.00
2023-03-21T15:43:12.660Z,683.00
2023-03-21T15:47:12.664Z,676.00
2023-03-21T15:51:12.692Z,657.00
2023-03-21T15:55:12.681Z,655.00
2023-03-21T15:59:12.850Z,656.00
2023-03-21T16:03:12.988Z,654.00
2023-03-21T16:07:13.114Z,658.00
2023-03-21T16:11:13.130Z,653.00
2023-03-21T16:15:13.262Z,650.00
2023-03-21T16:19:13.408Z,647.00
2023-03-21T16:23:13.505Z,647.00
2023-03-21T16:27:13.599Z,648.00
2023-03-21T16:31:13.861Z,643.00
2023-03-21T16:35:14.501Z,643.00
2023-03-21T16:39:14.058Z,643.00
2023-03-21T16:43:14.141Z,642.00
2023-03-21T16:47:14.264Z,639.00
2023-03-21T16:51:14.417Z,640.00
2023-03-21T16:55:14.696Z,634.00
2023-03-21T16:59:15.003Z,627.00
2023-03-21T17:03:14.913Z,623.00
2023-03-21T17:07:15.487Z,625.00
2023-03-21T17:11:15.146Z,622.00
2023-03-21T17:15:15.323Z,615.00
2023-03-21T17:19:15.452Z,619.00
2023-03-21T17:23:15.629Z,610.00
2023-03-21T17:27:15.868Z,608.00
2023-03-21T17:31:16.074Z,613.00
2023-03-21T17:35:16.166Z,647.00
2023-03-21T17:39:16.329Z,621.00
2023-03-21T17:43:17.435Z,703.00
2023-03-21T17:47:16.615Z,722.00
2023-03-21T17:51:16.780Z,658.00
2023-03-21T17:55:16.958Z,655.00
2023-03-21T17:59:19.923Z,658.00
2023-03-21T18:03:18.587Z,658.00
2023-03-21T18:07:29.731Z,651.00
2023-03-21T18:11:18.070Z,656.00
2023-03-21T18:15:19.200Z,649.00
2023-03-21T18:19:17.180Z,642.00
2023-03-21T18:23:17.238Z,643.00
2023-03-21T18:27:18.305Z,640.00
2023-03-21T18:31:19.755Z,635.00
2023-03-21T18:35:17.578Z,636.00
2023-03-21T18:39:17.613Z,630.00
2023-03-21T18:43:59.387Z,624.00
2023-03-21T18:47:18.473Z,629.00
2023-03-21T18:51:17.609Z,624.00
2023-03-21T18:55:18.655Z,619.00
2023-03-21T18:59:17.924Z,620.00
2023-03-21T19:03:30.148Z,622.00
2023-03-21T19:07:19.042Z,617.00
2023-03-21T19:11:17.989Z,619.00
2023-03-21T19:15:18.025Z,614.00
2023-03-21T19:19:17.907Z,610.00
2023-03-21T19:23:18.810Z,609.00
2023-03-21T19:27:17.838Z,606.00
2023-03-21T19:31:17.874Z,607.00
2023-03-21T19:35:17.812Z,605.00
2023-03-21T19:39:17.755Z,598.00
2023-03-21T19:43:32.270Z,599.00
2023-03-21T19:47:20.663Z,592.00
2023-03-21T19:51:28.236Z,594.00
2023-03-21T19:55:18.581Z,592.00
2023-03-21T19:59:17.541Z,588.00
2023-03-21T20:03:17.598Z,585.00
2023-03-21T20:07:17.552Z,586.00
2023-03-21T20:11:17.469Z,581.00
2023-03-21T20:15:21.359Z,583.00
2023-03-21T20:19:17.371Z,584.00
2023-03-21T20:23:17.382Z,581.00
2023-03-21T20:27:17.312Z,579.00
2023-03-21T20:31:19.122Z,578.00
2023-03-21T20:35:25.250Z,575.00
2023-03-21T20:39:18.202Z,576.00
2023-03-21T20:44:06.506Z,579.00
2023-03-21T20:47:18.227Z,569.00
2023-03-21T20:52:36.921Z,567.00
2023-03-21T20:55:18.123Z,568.00
2023-03-21T20:59:26.184Z,570.00
2023-03-21T21:03:18.129Z,571.00
2023-03-21T21:07:17.208Z,569.00
2023-03-21T21:12:02.905Z,565.00
2023-03-21T21:15:18.114Z,565.00
2023-03-21T21:19:17.054Z,563.00
2023-03-21T21:23:17.095Z,562.00
2023-03-21T21:27:17.034Z,561.00
2023-03-21T21:31:17.006Z,557.00
2023-03-21T21:35:17.056Z,561.00
2023-03-21T21:39:16.920Z,555.00
2023-03-21T21:43:16.894Z,556.00
2023-03-21T21:47:16.810Z,552.00
2023-03-21T21:51:16.816Z,554.00
2023-03-21T21:55:16.761Z,554.00
2023-03-21T21:59:16.809Z,552.00
2023-03-21T22:03:17.135Z,548.00
2023-03-21T22:07:16.976Z,547.00
2023-03-21T22:11:17.638Z,544.00
2023-03-21T22:15:16.914Z,546.00
2023-03-21T22:19:16.920Z,545.00
2023-03-21T22:23:16.868Z,543.00
2023-03-21T22:27:16.812Z,540.00
2023-03-21T22:31:16.850Z,542.00
2023-03-21T22:35:16.830Z,540.00
2023-03-21T22:39:16.847Z,543.00
2023-03-21T22:43:16.806Z,535.00
2023-03-21T22:47:16.778Z,539.00
2023-03-21T22:51:16.766Z,535.00
2023-03-21T22:55:16.721Z,531.00
2023-03-21T22:59:16.700Z,531.00
2023-03-21T23:03:16.905Z,531.00
2023-03-21T23:07:16.643Z,529.00
2023-03-21T23:11:16.575Z,530.00
2023-03-21T23:15:16.539Z,527.00
2023-03-21T23:19:16.482Z,527.00
2023-03-21T23:23:17.609Z,525.00
2023-03-21T23:27:16.696Z,526.00
2023-03-21T23:31:16.839Z,522.00
2023-03-21T23:35:16.954Z,519.00
2023-03-21T23:39:16.985Z,518.00
2023-03-21T23:43:17.104Z,518.00
2023-03-21T23:47:17.138Z,520.00
2023-03-21T23:51:17.199Z,516.00
2023-03-21T23:55:17.331Z,513.00
2023-03-21T23:59:17.479Z,516.00
